Tropical Cyclones
[Index]
Main Index Home Page Stock Weather Photos Extreme Storms Discussion Storm News and Storm Chasing Reports Tropical Cyclones / Hurricanes / Typhoons Weather Data and Links Wild Fires / Bushfires Weather Observation Techniques Weather Picture Catalogue Tornado Pictures and Reports Stock Video Footage and DVDs for sale
Season 1999-2000 Tropical Cyclone INNOCENTE Track Map
Season 1999-2000 Summaries (Operational Data): [AU] [SIO] [SPAC] [SH]
<<- Previous TC | 1999-2000 Season | Next TC ->>

click for intensity scale information  Lat/long Grid: Show Hide

 Date Labels: Show Hide

Operational Tropical Cyclone Data : JTWC Advisories

Name: INNOCENTE
Number: 0026

12 Apr 2000 18:00 UTC to 19 Apr 2000 12:00 UTC

    date/time    lat    long     hPa   cat  kts
2000-04-12 18   10.8    89.0    1002         25          
2000-04-13 00   11.5    88.5     997         30          
2000-04-13 06   11.7    86.4     998         30          
2000-04-13 12   11.9    84.9     998         30          
2000-04-13 18   12.0    83.5     998         30          
2000-04-14 00   12.0    82.7    1000         25          
2000-04-14 06   11.0    84.7    1000         25          
2000-04-14 12   11.2    84.5    1000         25          
2000-04-15 06   13.7    82.5    1000         25          
2000-04-15 12   15.5    81.3     997         30          
2000-04-15 18   15.0    79.9     998         30          
2000-04-16 00   15.2    79.2     997         30          
2000-04-16 06   15.4    78.9     996         30          
2000-04-16 12   15.7    77.6     994    1    35          
2000-04-16 18   15.6    76.9     997         30          
2000-04-17 00   15.4    76.5     997         30          
2000-04-17 06   15.0    76.4     998         30          
2000-04-17 12   16.7    75.8     997         30          
2000-04-17 18   16.9    74.5     995    1    35          
2000-04-18 00   17.2    73.8     995    1    35          
2000-04-18 06   17.3    73.3     995    1    35          
2000-04-18 12   17.4    72.9     995    1    35          
2000-04-18 18   17.7    72.0     995    1    35          
2000-04-19 00   17.7    71.3     997         30          
2000-04-19 06   17.8    70.4     997         30          
2000-04-19 12   18.0    69.9     998         30          
Winds are 10-min average.

Tropical cyclone tracks developed by Michael Bath using operational warnings and advisories and Google Maps.


[Australian Severe Weather index] [Copyright Notice] [Email Contacts] [Search This Site] [Privacy Policy]
Document: tropical_cyclone_innocente.htm Updated: 28 May 2013